Finly, Indiana
Current Conditions -  °F | °C
As of 7:53 PM on Friday 24 Oct 2014 (Local Time) from KGEZ Reporting Station
Scattered Clouds Scattered Clouds  
Wind Chill: 59°   Ceiling: Unl
Heat Index: 59°   Visibility: 10mi
Dew Point: 49°   Wind: 5mph
Humidity: 69%   Direction: 200°SSW
Pressure: 30.03"   Gusts: NA
Location:  39.71°N, 85.82°W
Report Text: KGEZ 242353Z AUTO 20004KT 10SM SCT043 15/09 A3003 RMK AO2 SLP172 T01500094 10200 20139 53005
Loading
Personal Weather Stations






























Interactive Weather Map New forecast layout! Learn more

10-Day Weather Forecast

Advertisements
Track Severe Weather on mobile